Takatori — JL6597 — position and weather

sailwx.info

Track history (hours):
 
Tides and Currents Weather Stations Pressure Air Temp Water Temp Dewpoint Dewpoint Depression Visibility Wind Speed Wind Dir Waves Ship Positions

Takatori

Last reported at 2018-Jan-18 10:35 UTC. Time now 2018-Jan-18 12:15 UTC.
Position N 34°06' E 132°41'.

Length 74 m; draft 4 m.

Type: Cargo ship. MMSI: 431501607.

Date/timePositionNaut miles runAvg speedWind from/ knotsBaromVisibWave heightAir tempDewpointWater temp
2018-Jan-18 10:35N 34°06' E 132°41'111.8
2018-Jan-18 10:29N 34°05' E 132°40'811.2
2018-Jan-18 09:45N 34°02' E 132°31'1311.1
2018-Jan-18 08:34N 34°10' E 132°18'111.2
2018-Jan-18 08:29N 34°11' E 132°17'3 6.5
2018-Jan-18 07:59N 34°13' E 132°15'0 0.0
2018-Jan-18 07:02N 34°13' E 132°15'0 0.0
2018-Jan-18 06:50N 34°13' E 132°15'0 0.1
2018-Jan-18 06:19N 34°13' E 132°15'0 0.9
2018-Jan-18 05:56N 34°13' E 132°15'0 0.0
2018-Jan-18 05:20N 34°13' E 132°15'0 0.0
2018-Jan-18 04:56N 34°13' E 132°15'0 0.0
2018-Jan-18 04:24N 34°13' E 132°15'0 0.0
2018-Jan-18 04:00N 34°13' E 132°15'0 0.0
2018-Jan-18 01:52N 34°13' E 132°15'0 0.0
2018-Jan-18 01:23N 34°13' E 132°15'0 0.9
2018-Jan-18 00:57N 34°13' E 132°15'0 0.0
2018-Jan-18 00:00N 34°13' E 132°15'0 0.0
2018-Jan-17 23:51N 34°13' E 132°15'  
2018-Jan-12 13:35N 34°26' E 134°25'110.9
2018-Jan-12 13:28N 34°27' E 134°27'511.1
2018-Jan-12 13:00N 34°29' E 134°32'510.9
2018-Jan-12 12:30N 34°31' E 134°39'510.7
2018-Jan-12 12:00N 34°33' E 134°45'510.8
2018-Jan-12 11:30N 34°35' E 134°51'510.8
2018-Jan-12 11:00N 34°37' E 134°57'510.1
2018-Jan-12 10:30N 34°37' E 135°03'510.8
2018-Jan-12 10:00N 34°37' E 135°09'510.9
2018-Jan-12 09:30N 34°39' E 135°15'2 3.3
2018-Jan-12 08:58N 34°40' E 135°14'0 0.0
2018-Jan-12 08:28N 34°40' E 135°14'0 0.0
2018-Jan-12 07:58N 34°40' E 135°14'0 0.0
2018-Jan-12 07:28N 34°40' E 135°14'0 0.1
2018-Jan-12 07:00N 34°40' E 135°14'1 1.7
2018-Jan-12 06:29N 34°39' E 135°15'0 0.0
2018-Jan-12 05:59N 34°39' E 135°15'0 0.0
2018-Jan-12 05:29N 34°39' E 135°15'0 0.0
2018-Jan-12 04:59N 34°39' E 135°15'0 0.6
2018-Jan-12 04:31N 34°39' E 135°15'1 1.1
2018-Jan-12 04:01N 34°39' E 135°15'0 0.0
2018-Jan-12 03:28N 34°39' E 135°15'0 0.0
2018-Jan-12 03:01N 34°39' E 135°15'0 0.1
2018-Jan-12 02:31N 34°39' E 135°15'0 0.0
2018-Jan-12 02:01N 34°39' E 135°15'0 0.0
2018-Jan-12 01:30N 34°39' E 135°15'3 5.2
2018-Jan-12 01:00N 34°41' E 135°17'2 3.4
2018-Jan-12 00:30N 34°40' E 135°19'510.9
2018-Jan-12 00:00N 34°38' E 135°24'0 0.8
2018-Jan-11 23:29N 34°38' E 135°25'2 4.1
2018-Jan-11 23:00N 34°37' E 135°23'611.7
2018-Jan-11 22:30N 34°36' E 135°16'611.7
2018-Jan-11 22:00N 34°35' E 135°09'510.4
2018-Jan-11 21:30N 34°36' E 135°03'4 8.8
2018-Jan-11 21:00N 34°36' E 134°57'5 9.9
2018-Jan-11 20:30N 34°34' E 134°52'510.4
2018-Jan-11 19:59N 34°32' E 134°46'511.3
2018-Jan-11 19:30N 34°30' E 134°40'611.4
2018-Jan-11 19:00N 34°28' E 134°33'9610.8
2018-Jan-11 10:11N 34°05' E 132°41'211.9
2018-Jan-11 10:00N 34°04' E 132°38'16 9.1
2018-Jan-11 08:16N 34°13' E 132°22'311.5
2018-Jan-11 08:00N 34°16' E 132°22'611.2
2018-Jan-11 07:31N 34°20' E 132°26'1 2.0
2018-Jan-11 07:00N 34°21' E 132°26'0 0.0
2018-Jan-11 06:30N 34°21' E 132°26'0 0.0
2018-Jan-11 06:00N 34°21' E 132°26'0 0.0
2018-Jan-11 05:27N 34°21' E 132°26'0 0.0
2018-Jan-11 05:00N 34°21' E 132°26'0 0.0
2018-Jan-11 04:30N 34°21' E 132°26'0 0.0
2018-Jan-11 04:00N 34°21' E 132°26'0 0.0
2018-Jan-11 03:30N 34°21' E 132°26'0 0.0
2018-Jan-11 03:00N 34°21' E 132°26'0 0.0
2018-Jan-11 02:30N 34°21' E 132°26'0 0.0
2018-Jan-11 02:00N 34°21' E 132°26'0 0.0
2018-Jan-11 01:30N 34°21' E 132°26'0 0.0
2018-Jan-11 01:00N 34°21' E 132°26'0 0.0
2018-Jan-11 00:30N 34°21' E 132°26'3 6.7
2018-Jan-11 00:00N 34°18' E 132°24'17 8.7
2018-Jan-10 22:02N 34°03' E 132°35'011.7
2018-Jan-10 22:00N 34°03' E 132°35'9510.1
2018-Jan-10 12:35N 34°27' E 134°27'111.1
2018-Jan-10 12:29N 34°27' E 134°28'510.6
2018-Jan-10 12:00N 34°29' E 134°34'510.4
2018-Jan-10 11:29N 34°31' E 134°40'510.2
2018-Jan-10 11:00N 34°33' E 134°45'510.2
2018-Jan-10 10:30N 34°35' E 134°51'5 9.9
2018-Jan-10 10:00N 34°37' E 134°56'5 9.3
2018-Jan-10 09:30N 34°37' E 135°02'5 9.7
2018-Jan-10 09:00N 34°37' E 135°08'510.9
2018-Jan-10 08:30N 34°38' E 135°14'3 6.3
2018-Jan-10 07:59N 34°41' E 135°16'0 0.0
2018-Jan-10 07:29N 34°41' E 135°16'0 0.0
2018-Jan-10 06:59N 34°41' E 135°16'0 0.0
2018-Jan-10 06:29N 34°41' E 135°16'0 0.0
2018-Jan-10 05:59N 34°41' E 135°16'0 0.0
2018-Jan-10 05:29N 34°41' E 135°16'0 0.2
2018-Jan-10 05:00N 34°41' E 135°16'2 3.0
2018-Jan-10 04:30N 34°40' E 135°14'0 0.0
2018-Jan-10 04:00N 34°40' E 135°14'0 0.0
2018-Jan-10 03:30N 34°40' E 135°14'0 0.0
2018-Jan-10 03:00N 34°40' E 135°14'0 0.0
2018-Jan-10 02:30N 34°40' E 135°14'0 0.0
2018-Jan-10 02:00N 34°40' E 135°14'0 0.0
2018-Jan-10 01:30N 34°40' E 135°14'1 1.1
2018-Jan-10 01:01N 34°39' E 135°15'0 0.1
2018-Jan-10 00:31N 34°39' E 135°15'2 4.3
2018-Jan-09 23:58N 34°41' E 135°17'0 0.0
2018-Jan-09 23:31N 34°41' E 135°17'1 2.2
2018-Jan-09 23:01N 34°40' E 135°15'2 3.7
2018-Jan-09 22:29N 34°39' E 135°15'0 0.0
2018-Jan-09 21:59N 34°39' E 135°15'0 0.0
2018-Jan-09 21:29N 34°39' E 135°15'0 0.0
2018-Jan-09 20:59N 34°39' E 135°15'0 0.0
2018-Jan-09 20:26N 34°39' E 135°15'0 0.0
2018-Jan-09 19:59N 34°39' E 135°15'0 0.0
2018-Jan-09 19:29N 34°39' E 135°15'0 0.0
2018-Jan-09 18:59N 34°39' E 135°15'0 0.0
2018-Jan-09 18:29N 34°39' E 135°15'0 0.0
2018-Jan-09 17:59N 34°39' E 135°15'0 0.0
2018-Jan-09 17:29N 34°39' E 135°15'0 0.0
2018-Jan-09 16:59N 34°39' E 135°15'0 0.0
2018-Jan-09 16:29N 34°39' E 135°15'0 0.0
2018-Jan-09 15:59N 34°39' E 135°15'0 0.0
2018-Jan-09 15:29N 34°39' E 135°15'0 0.0
2018-Jan-09 14:59N 34°39' E 135°15'0 0.0
2018-Jan-09 14:29N 34°39' E 135°15'0 0.0
2018-Jan-09 13:59N 34°39' E 135°15'0 0.0
2018-Jan-09 13:29N 34°39' E 135°15'0 0.0
2018-Jan-09 12:59N 34°39' E 135°15'0 0.0
2018-Jan-09 12:29N 34°39' E 135°15'0 0.0
2018-Jan-09 11:59N 34°39' E 135°15'0 0.0
2018-Jan-09 11:29N 34°39' E 135°15'0 0.0
2018-Jan-09 10:59N 34°39' E 135°15'0 0.0
2018-Jan-09 10:29N 34°39' E 135°15'0 0.0
2018-Jan-09 09:59N 34°39' E 135°15'0 0.1
2018-Jan-09 09:30N 34°38' E 135°15'5 9.3
2018-Jan-09 09:00N 34°36' E 135°10'611.2
2018-Jan-09 08:30N 34°35' E 135°03'611.6
2018-Jan-09 08:00N 34°36' E 134°56'611.6
2018-Jan-09 07:30N 34°39' E 134°50'611.5
2018-Jan-09 07:00N 34°42' E 134°44'  
Track history (hours):
 
Tides and Currents Weather Stations Pressure Air Temp Water Temp Dewpoint Dewpoint Depression Visibility Wind Speed Wind Dir Waves Ship Positions

Takatori

Last reported at 2018-Jan-18 10:35 UTC. Time now 2018-Jan-18 12:15 UTC.
Position N 34°06' E 132°41'.

Length 74 m; draft 4 m.

Type: Cargo ship. MMSI: 431501607.

Date/timePositionNaut miles runAvg speedWind from/ knotsBaromVisibWave heightAir tempDewpointWater temp
2018-Jan-18 10:35N 34°06' E 132°41'111.8
2018-Jan-18 10:29N 34°05' E 132°40'811.2
2018-Jan-18 09:45N 34°02' E 132°31'1311.1
2018-Jan-18 08:34N 34°10' E 132°18'111.2
2018-Jan-18 08:29N 34°11' E 132°17'3 6.5
2018-Jan-18 07:59N 34°13' E 132°15'0 0.0
2018-Jan-18 07:02N 34°13' E 132°15'0 0.0
2018-Jan-18 06:50N 34°13' E 132°15'0 0.1
2018-Jan-18 06:19N 34°13' E 132°15'0 0.9
2018-Jan-18 05:56N 34°13' E 132°15'0 0.0
2018-Jan-18 05:20N 34°13' E 132°15'0 0.0
2018-Jan-18 04:56N 34°13' E 132°15'0 0.0
2018-Jan-18 04:24N 34°13' E 132°15'0 0.0
2018-Jan-18 04:00N 34°13' E 132°15'0 0.0
2018-Jan-18 01:52N 34°13' E 132°15'0 0.0
2018-Jan-18 01:23N 34°13' E 132°15'0 0.9
2018-Jan-18 00:57N 34°13' E 132°15'0 0.0
2018-Jan-18 00:00N 34°13' E 132°15'0 0.0
2018-Jan-17 23:51N 34°13' E 132°15'  
2018-Jan-12 13:35N 34°26' E 134°25'110.9
2018-Jan-12 13:28N 34°27' E 134°27'511.1
2018-Jan-12 13:00N 34°29' E 134°32'510.9
2018-Jan-12 12:30N 34°31' E 134°39'510.7
2018-Jan-12 12:00N 34°33' E 134°45'510.8
2018-Jan-12 11:30N 34°35' E 134°51'510.8
2018-Jan-12 11:00N 34°37' E 134°57'510.1
2018-Jan-12 10:30N 34°37' E 135°03'510.8
2018-Jan-12 10:00N 34°37' E 135°09'510.9
2018-Jan-12 09:30N 34°39' E 135°15'2 3.3
2018-Jan-12 08:58N 34°40' E 135°14'0 0.0
2018-Jan-12 08:28N 34°40' E 135°14'0 0.0
2018-Jan-12 07:58N 34°40' E 135°14'0 0.0
2018-Jan-12 07:28N 34°40' E 135°14'0 0.1
2018-Jan-12 07:00N 34°40' E 135°14'1 1.7
2018-Jan-12 06:29N 34°39' E 135°15'0 0.0
2018-Jan-12 05:59N 34°39' E 135°15'0 0.0
2018-Jan-12 05:29N 34°39' E 135°15'0 0.0
2018-Jan-12 04:59N 34°39' E 135°15'0 0.6
2018-Jan-12 04:31N 34°39' E 135°15'1 1.1
2018-Jan-12 04:01N 34°39' E 135°15'0 0.0
2018-Jan-12 03:28N 34°39' E 135°15'0 0.0
2018-Jan-12 03:01N 34°39' E 135°15'0 0.1
2018-Jan-12 02:31N 34°39' E 135°15'0 0.0
2018-Jan-12 02:01N 34°39' E 135°15'0 0.0
2018-Jan-12 01:30N 34°39' E 135°15'3 5.2
2018-Jan-12 01:00N 34°41' E 135°17'2 3.4
2018-Jan-12 00:30N 34°40' E 135°19'510.9
2018-Jan-12 00:00N 34°38' E 135°24'0 0.8
2018-Jan-11 23:29N 34°38' E 135°25'2 4.1
2018-Jan-11 23:00N 34°37' E 135°23'611.7
2018-Jan-11 22:30N 34°36' E 135°16'611.7
2018-Jan-11 22:00N 34°35' E 135°09'510.4
2018-Jan-11 21:30N 34°36' E 135°03'4 8.8
2018-Jan-11 21:00N 34°36' E 134°57'5 9.9
2018-Jan-11 20:30N 34°34' E 134°52'510.4
2018-Jan-11 19:59N 34°32' E 134°46'511.3
2018-Jan-11 19:30N 34°30' E 134°40'611.4
2018-Jan-11 19:00N 34°28' E 134°33'9610.8
2018-Jan-11 10:11N 34°05' E 132°41'211.9
2018-Jan-11 10:00N 34°04' E 132°38'16 9.1
2018-Jan-11 08:16N 34°13' E 132°22'311.5
2018-Jan-11 08:00N 34°16' E 132°22'611.2
2018-Jan-11 07:31N 34°20' E 132°26'1 2.0
2018-Jan-11 07:00N 34°21' E 132°26'0 0.0
2018-Jan-11 06:30N 34°21' E 132°26'0 0.0
2018-Jan-11 06:00N 34°21' E 132°26'0 0.0
2018-Jan-11 05:27N 34°21' E 132°26'0 0.0
2018-Jan-11 05:00N 34°21' E 132°26'0 0.0
2018-Jan-11 04:30N 34°21' E 132°26'0 0.0
2018-Jan-11 04:00N 34°21' E 132°26'0 0.0
2018-Jan-11 03:30N 34°21' E 132°26'0 0.0
2018-Jan-11 03:00N 34°21' E 132°26'0 0.0
2018-Jan-11 02:30N 34°21' E 132°26'0 0.0
2018-Jan-11 02:00N 34°21' E 132°26'0 0.0
2018-Jan-11 01:30N 34°21' E 132°26'0 0.0
2018-Jan-11 01:00N 34°21' E 132°26'0 0.0
2018-Jan-11 00:30N 34°21' E 132°26'3 6.7
2018-Jan-11 00:00N 34°18' E 132°24'17 8.7
2018-Jan-10 22:02N 34°03' E 132°35'011.7
2018-Jan-10 22:00N 34°03' E 132°35'9510.1
2018-Jan-10 12:35N 34°27' E 134°27'111.1
2018-Jan-10 12:29N 34°27' E 134°28'510.6
2018-Jan-10 12:00N 34°29' E 134°34'510.4
2018-Jan-10 11:29N 34°31' E 134°40'510.2
2018-Jan-10 11:00N 34°33' E 134°45'510.2
2018-Jan-10 10:30N 34°35' E 134°51'5 9.9
2018-Jan-10 10:00N 34°37' E 134°56'5 9.3
2018-Jan-10 09:30N 34°37' E 135°02'5 9.7
2018-Jan-10 09:00N 34°37' E 135°08'510.9
2018-Jan-10 08:30N 34°38' E 135°14'3 6.3
2018-Jan-10 07:59N 34°41' E 135°16'0 0.0
2018-Jan-10 07:29N 34°41' E 135°16'0 0.0
2018-Jan-10 06:59N 34°41' E 135°16'0 0.0
2018-Jan-10 06:29N 34°41' E 135°16'0 0.0
2018-Jan-10 05:59N 34°41' E 135°16'0 0.0
2018-Jan-10 05:29N 34°41' E 135°16'0 0.2
2018-Jan-10 05:00N 34°41' E 135°16'2 3.0
2018-Jan-10 04:30N 34°40' E 135°14'0 0.0
2018-Jan-10 04:00N 34°40' E 135°14'0 0.0
2018-Jan-10 03:30N 34°40' E 135°14'0 0.0
2018-Jan-10 03:00N 34°40' E 135°14'0 0.0
2018-Jan-10 02:30N 34°40' E 135°14'0 0.0
2018-Jan-10 02:00N 34°40' E 135°14'0 0.0
2018-Jan-10 01:30N 34°40' E 135°14'1 1.1
2018-Jan-10 01:01N 34°39' E 135°15'0 0.1
2018-Jan-10 00:31N 34°39' E 135°15'2 4.3
2018-Jan-09 23:58N 34°41' E 135°17'0 0.0
2018-Jan-09 23:31N 34°41' E 135°17'1 2.2
2018-Jan-09 23:01N 34°40' E 135°15'2 3.7
2018-Jan-09 22:29N 34°39' E 135°15'0 0.0
2018-Jan-09 21:59N 34°39' E 135°15'0 0.0
2018-Jan-09 21:29N 34°39' E 135°15'0 0.0
2018-Jan-09 20:59N 34°39' E 135°15'0 0.0
2018-Jan-09 20:26N 34°39' E 135°15'0 0.0
2018-Jan-09 19:59N 34°39' E 135°15'0 0.0
2018-Jan-09 19:29N 34°39' E 135°15'0 0.0
2018-Jan-09 18:59N 34°39' E 135°15'0 0.0
2018-Jan-09 18:29N 34°39' E 135°15'0 0.0
2018-Jan-09 17:59N 34°39' E 135°15'0 0.0
2018-Jan-09 17:29N 34°39' E 135°15'0 0.0
2018-Jan-09 16:59N 34°39' E 135°15'0 0.0
2018-Jan-09 16:29N 34°39' E 135°15'0 0.0
2018-Jan-09 15:59N 34°39' E 135°15'0 0.0
2018-Jan-09 15:29N 34°39' E 135°15'0 0.0
2018-Jan-09 14:59N 34°39' E 135°15'0 0.0
2018-Jan-09 14:29N 34°39' E 135°15'0 0.0
2018-Jan-09 13:59N 34°39' E 135°15'0 0.0
2018-Jan-09 13:29N 34°39' E 135°15'0 0.0
2018-Jan-09 12:59N 34°39' E 135°15'0 0.0
2018-Jan-09 12:29N 34°39' E 135°15'0 0.0
2018-Jan-09 11:59N 34°39' E 135°15'0 0.0
2018-Jan-09 11:29N 34°39' E 135°15'0 0.0
2018-Jan-09 10:59N 34°39' E 135°15'0 0.0
2018-Jan-09 10:29N 34°39' E 135°15'0 0.0
2018-Jan-09 09:59N 34°39' E 135°15'0 0.1
2018-Jan-09 09:30N 34°38' E 135°15'5 9.3
2018-Jan-09 09:00N 34°36' E 135°10'611.2
2018-Jan-09 08:30N 34°35' E 135°03'611.6
2018-Jan-09 08:00N 34°36' E 134°56'611.6
2018-Jan-09 07:30N 34°39' E 134°50'611.5
2018-Jan-09 07:00N 34°42' E 134°44'  

Dump ship's entire track history